sensor_id;sensor_type;location;lat;lon;timestamp;P1;durP1;ratioP1;P2;durP2;ratioP2
31368;SDS011;18004;48.416;10.066;2022-07-03T00:02:11;1.15;;;0.82;;
31368;SDS011;18004;48.416;10.066;2022-07-03T00:04:37;1.05;;;0.70;;
31368;SDS011;18004;48.416;10.066;2022-07-03T00:07:03;1.67;;;0.77;;
31368;SDS011;18004;48.416;10.066;2022-07-03T00:09:29;0.60;;;0.60;;
31368;SDS011;18004;48.416;10.066;2022-07-03T00:11:55;0.55;;;0.55;;
31368;SDS011;18004;48.416;10.066;2022-07-03T00:14:21;0.68;;;0.60;;
31368;SDS011;18004;48.416;10.066;2022-07-03T00:16:46;1.35;;;0.70;;
31368;SDS011;18004;48.416;10.066;2022-07-03T00:19:12;0.70;;;0.60;;
31368;SDS011;18004;48.416;10.066;2022-07-03T00:21:39;1.05;;;0.65;;
31368;SDS011;18004;48.416;10.066;2022-07-03T00:24:54;0.98;;;0.90;;
31368;SDS011;18004;48.416;10.066;2022-07-03T00:27:04;1.38;;;0.80;;
31368;SDS011;18004;48.416;10.066;2022-07-03T00:29:36;0.82;;;0.70;;
31368;SDS011;18004;48.416;10.066;2022-07-03T00:32:08;1.10;;;0.80;;
31368;SDS011;18004;48.416;10.066;2022-07-03T00:34:36;1.35;;;0.77;;
31368;SDS011;18004;48.416;10.066;2022-07-03T00:37:03;0.90;;;0.73;;
31368;SDS011;18004;48.416;10.066;2022-07-03T00:39:34;2.53;;;0.80;;
31368;SDS011;18004;48.416;10.066;2022-07-03T00:42:03;1.42;;;0.85;;
31368;SDS011;18004;48.416;10.066;2022-07-03T00:44:31;0.82;;;0.70;;
31368;SDS011;18004;48.416;10.066;2022-07-03T00:47:02;1.13;;;0.70;;
31368;SDS011;18004;48.416;10.066;2022-07-03T00:49:29;2.40;;;0.65;;
31368;SDS011;18004;48.416;10.066;2022-07-03T00:51:58;2.00;;;0.75;;
31368;SDS011;18004;48.416;10.066;2022-07-03T00:54:27;1.15;;;1.00;;
31368;SDS011;18004;48.416;10.066;2022-07-03T00:56:57;0.90;;;0.80;;
31368;SDS011;18004;48.416;10.066;2022-07-03T00:59:25;1.63;;;1.05;;
31368;SDS011;18004;48.416;10.066;2022-07-03T01:01:53;0.88;;;0.88;;
31368;SDS011;18004;48.416;10.066;2022-07-03T01:07:46;1.38;;;1.00;;
31368;SDS011;18004;48.416;10.066;2022-07-03T01:10:16;0.82;;;0.80;;
31368;SDS011;18004;48.416;10.066;2022-07-03T01:27:09;1.75;;;1.48;;
31368;SDS011;18004;48.416;10.066;2022-07-03T01:30:24;1.80;;;1.10;;
31368;SDS011;18004;48.416;10.066;2022-07-03T01:32:41;1.48;;;1.25;;
31368;SDS011;18004;48.416;10.066;2022-07-03T01:35:08;3.03;;;1.58;;
31368;SDS011;18004;48.416;10.066;2022-07-03T01:37:46;1.42;;;1.17;;
31368;SDS011;18004;48.416;10.066;2022-07-03T01:40:13;1.50;;;1.00;;
31368;SDS011;18004;48.416;10.066;2022-07-03T01:42:42;1.30;;;1.20;;
31368;SDS011;18004;48.416;10.066;2022-07-03T01:45:11;1.70;;;1.20;;
31368;SDS011;18004;48.416;10.066;2022-07-03T01:47:40;2.60;;;1.58;;
31368;SDS011;18004;48.416;10.066;2022-07-03T01:50:10;3.03;;;1.30;;
31368;SDS011;18004;48.416;10.066;2022-07-03T01:52:40;1.17;;;1.08;;
31368;SDS011;18004;48.416;10.066;2022-07-03T01:55:07;1.88;;;1.40;;
31368;SDS011;18004;48.416;10.066;2022-07-03T01:57:41;2.92;;;1.40;;
31368;SDS011;18004;48.416;10.066;2022-07-03T02:00:12;2.67;;;1.15;;
31368;SDS011;18004;48.416;10.066;2022-07-03T02:02:52;1.40;;;1.13;;
31368;SDS011;18004;48.416;10.066;2022-07-03T02:22:14;3.35;;;1.10;;
31368;SDS011;18004;48.416;10.066;2022-07-03T02:24:50;1.50;;;0.90;;
31368;SDS011;18004;48.416;10.066;2022-07-03T02:27:16;1.40;;;0.95;;
31368;SDS011;18004;48.416;10.066;2022-07-03T02:32:20;5.47;;;1.30;;
31368;SDS011;18004;48.416;10.066;2022-07-03T02:34:49;1.30;;;0.80;;
31368;SDS011;18004;48.416;10.066;2022-07-03T02:37:22;1.13;;;1.02;;
31368;SDS011;18004;48.416;10.066;2022-07-03T02:39:57;3.60;;;0.95;;
31368;SDS011;18004;48.416;10.066;2022-07-03T02:45:21;7.30;;;0.90;;
31368;SDS011;18004;48.416;10.066;2022-07-03T02:48:04;1.27;;;1.15;;
31368;SDS011;18004;48.416;10.066;2022-07-03T02:50:52;1.65;;;1.30;;
31368;SDS011;18004;48.416;10.066;2022-07-03T02:53:28;2.05;;;1.30;;
31368;SDS011;18004;48.416;10.066;2022-07-03T02:56:07;1.35;;;1.10;;
31368;SDS011;18004;48.416;10.066;2022-07-03T03:01:57;1.70;;;1.20;;
31368;SDS011;18004;48.416;10.066;2022-07-03T03:04:46;1.20;;;1.10;;
31368;SDS011;18004;48.416;10.066;2022-07-03T03:07:21;2.72;;;1.33;;
31368;SDS011;18004;48.416;10.066;2022-07-03T03:09:54;2.30;;;1.25;;
31368;SDS011;18004;48.416;10.066;2022-07-03T03:12:34;1.75;;;1.10;;
31368;SDS011;18004;48.416;10.066;2022-07-03T03:15:03;3.55;;;1.50;;
31368;SDS011;18004;48.416;10.066;2022-07-03T03:17:36;2.90;;;1.10;;
31368;SDS011;18004;48.416;10.066;2022-07-03T03:20:07;1.85;;;1.10;;
31368;SDS011;18004;48.416;10.066;2022-07-03T03:25:21;1.20;;;1.02;;
31368;SDS011;18004;48.416;10.066;2022-07-03T03:27:47;1.10;;;1.00;;
31368;SDS011;18004;48.416;10.066;2022-07-03T03:30:13;3.95;;;1.10;;
31368;SDS011;18004;48.416;10.066;2022-07-03T03:32:39;1.75;;;1.20;;
31368;SDS011;18004;48.416;10.066;2022-07-03T03:35:07;1.52;;;1.30;;
31368;SDS011;18004;48.416;10.066;2022-07-03T03:37:33;2.85;;;1.05;;
31368;SDS011;18004;48.416;10.066;2022-07-03T03:39:59;0.80;;;0.80;;
31368;SDS011;18004;48.416;10.066;2022-07-03T03:42:27;1.75;;;1.25;;
31368;SDS011;18004;48.416;10.066;2022-07-03T03:44:53;1.73;;;1.17;;
31368;SDS011;18004;48.416;10.066;2022-07-03T03:47:19;9.18;;;1.27;;
31368;SDS011;18004;48.416;10.066;2022-07-03T03:49:45;1.73;;;1.02;;
31368;SDS011;18004;48.416;10.066;2022-07-03T03:52:11;2.45;;;1.13;;
31368;SDS011;18004;48.416;10.066;2022-07-03T03:54:36;2.30;;;1.40;;
31368;SDS011;18004;48.416;10.066;2022-07-03T03:57:14;2.85;;;1.40;;
31368;SDS011;18004;48.416;10.066;2022-07-03T03:59:44;2.72;;;1.50;;
31368;SDS011;18004;48.416;10.066;2022-07-03T04:02:10;1.58;;;1.30;;
31368;SDS011;18004;48.416;10.066;2022-07-03T04:04:36;1.45;;;1.35;;
31368;SDS011;18004;48.416;10.066;2022-07-03T04:07:01;3.65;;;1.23;;
31368;SDS011;18004;48.416;10.066;2022-07-03T04:09:27;1.75;;;1.45;;
31368;SDS011;18004;48.416;10.066;2022-07-03T04:11:53;1.55;;;1.17;;
31368;SDS011;18004;48.416;10.066;2022-07-03T04:14:19;2.35;;;1.27;;
31368;SDS011;18004;48.416;10.066;2022-07-03T04:16:44;1.83;;;1.58;;
31368;SDS011;18004;48.416;10.066;2022-07-03T04:19:10;1.73;;;1.55;;
31368;SDS011;18004;48.416;10.066;2022-07-03T04:21:36;3.33;;;1.73;;
31368;SDS011;18004;48.416;10.066;2022-07-03T04:24:02;1.55;;;1.45;;
31368;SDS011;18004;48.416;10.066;2022-07-03T04:26:28;1.52;;;1.25;;
31368;SDS011;18004;48.416;10.066;2022-07-03T04:28:54;2.15;;;1.13;;
31368;SDS011;18004;48.416;10.066;2022-07-03T04:31:19;5.03;;;1.40;;
31368;SDS011;18004;48.416;10.066;2022-07-03T04:33:45;7.00;;;1.75;;
31368;SDS011;18004;48.416;10.066;2022-07-03T04:36:11;1.50;;;1.38;;
31368;SDS011;18004;48.416;10.066;2022-07-03T04:38:37;1.95;;;1.65;;
31368;SDS011;18004;48.416;10.066;2022-07-03T04:41:05;1.42;;;1.27;;
31368;SDS011;18004;48.416;10.066;2022-07-03T04:43:31;4.00;;;1.55;;
31368;SDS011;18004;48.416;10.066;2022-07-03T04:45:57;1.95;;;1.33;;
31368;SDS011;18004;48.416;10.066;2022-07-03T04:48:23;1.48;;;1.23;;
31368;SDS011;18004;48.416;10.066;2022-07-03T04:50:49;3.08;;;1.25;;
31368;SDS011;18004;48.416;10.066;2022-07-03T04:53:15;1.38;;;1.27;;
31368;SDS011;18004;48.416;10.066;2022-07-03T04:55:40;2.90;;;1.50;;
31368;SDS011;18004;48.416;10.066;2022-07-03T04:58:06;1.88;;;1.73;;
31368;SDS011;18004;48.416;10.066;2022-07-03T05:00:32;1.98;;;1.45;;
31368;SDS011;18004;48.416;10.066;2022-07-03T05:02:58;1.90;;;1.38;;
31368;SDS011;18004;48.416;10.066;2022-07-03T05:05:25;2.55;;;1.52;;
31368;SDS011;18004;48.416;10.066;2022-07-03T05:07:51;1.77;;;1.52;;
31368;SDS011;18004;48.416;10.066;2022-07-03T05:10:17;5.28;;;1.67;;
31368;SDS011;18004;48.416;10.066;2022-07-03T05:12:42;3.97;;;1.40;;
31368;SDS011;18004;48.416;10.066;2022-07-03T05:15:08;2.08;;;1.25;;
31368;SDS011;18004;48.416;10.066;2022-07-03T05:17:34;1.55;;;1.30;;
31368;SDS011;18004;48.416;10.066;2022-07-03T05:20:00;1.40;;;1.23;;
31368;SDS011;18004;48.416;10.066;2022-07-03T05:22:46;8.98;;;1.60;;
31368;SDS011;18004;48.416;10.066;2022-07-03T05:25:12;1.55;;;1.13;;
31368;SDS011;18004;48.416;10.066;2022-07-03T05:27:38;2.75;;;1.40;;
31368;SDS011;18004;48.416;10.066;2022-07-03T05:30:04;1.65;;;1.25;;
31368;SDS011;18004;48.416;10.066;2022-07-03T05:32:31;2.80;;;1.50;;
31368;SDS011;18004;48.416;10.066;2022-07-03T05:34:56;1.63;;;1.25;;
31368;SDS011;18004;48.416;10.066;2022-07-03T05:37:22;2.08;;;1.20;;
31368;SDS011;18004;48.416;10.066;2022-07-03T05:39:51;3.00;;;1.35;;
31368;SDS011;18004;48.416;10.066;2022-07-03T05:42:17;2.15;;;1.35;;
31368;SDS011;18004;48.416;10.066;2022-07-03T05:44:43;1.52;;;0.98;;
31368;SDS011;18004;48.416;10.066;2022-07-03T05:47:08;1.90;;;1.23;;
31368;SDS011;18004;48.416;10.066;2022-07-03T05:49:34;4.30;;;1.42;;
31368;SDS011;18004;48.416;10.066;2022-07-03T05:52:00;3.30;;;1.45;;
31368;SDS011;18004;48.416;10.066;2022-07-03T05:54:26;1.95;;;1.27;;
31368;SDS011;18004;48.416;10.066;2022-07-03T05:56:51;2.15;;;1.23;;
31368;SDS011;18004;48.416;10.066;2022-07-03T05:59:17;2.00;;;1.40;;
31368;SDS011;18004;48.416;10.066;2022-07-03T06:01:44;4.93;;;1.70;;
31368;SDS011;18004;48.416;10.066;2022-07-03T06:04:10;1.73;;;1.13;;
31368;SDS011;18004;48.416;10.066;2022-07-03T06:06:35;2.25;;;1.25;;
31368;SDS011;18004;48.416;10.066;2022-07-03T06:09:01;3.80;;;1.17;;
31368;SDS011;18004;48.416;10.066;2022-07-03T06:11:27;1.30;;;1.05;;
31368;SDS011;18004;48.416;10.066;2022-07-03T06:13:53;1.50;;;1.10;;
31368;SDS011;18004;48.416;10.066;2022-07-03T06:16:19;3.13;;;1.27;;
31368;SDS011;18004;48.416;10.066;2022-07-03T06:18:45;2.10;;;1.13;;
31368;SDS011;18004;48.416;10.066;2022-07-03T06:21:11;3.05;;;1.05;;
31368;SDS011;18004;48.416;10.066;2022-07-03T06:23:37;3.08;;;1.10;;
31368;SDS011;18004;48.416;10.066;2022-07-03T06:26:02;1.88;;;0.80;;
31368;SDS011;18004;48.416;10.066;2022-07-03T06:28:28;1.15;;;0.93;;
31368;SDS011;18004;48.416;10.066;2022-07-03T06:30:54;1.30;;;0.90;;
31368;SDS011;18004;48.416;10.066;2022-07-03T06:33:19;1.88;;;0.82;;
31368;SDS011;18004;48.416;10.066;2022-07-03T06:35:45;3.53;;;0.93;;
31368;SDS011;18004;48.416;10.066;2022-07-03T06:38:11;2.60;;;0.98;;
31368;SDS011;18004;48.416;10.066;2022-07-03T06:40:37;3.08;;;0.80;;
31368;SDS011;18004;48.416;10.066;2022-07-03T06:43:03;1.02;;;0.65;;
31368;SDS011;18004;48.416;10.066;2022-07-03T06:45:28;1.98;;;1.00;;
31368;SDS011;18004;48.416;10.066;2022-07-03T06:47:54;1.20;;;0.90;;
31368;SDS011;18004;48.416;10.066;2022-07-03T06:50:20;1.10;;;0.93;;
31368;SDS011;18004;48.416;10.066;2022-07-03T06:52:46;1.45;;;0.80;;
31368;SDS011;18004;48.416;10.066;2022-07-03T06:55:12;1.25;;;1.00;;
31368;SDS011;18004;48.416;10.066;2022-07-03T06:57:38;1.15;;;0.85;;
31368;SDS011;18004;48.416;10.066;2022-07-03T07:00:04;1.10;;;0.80;;
31368;SDS011;18004;48.416;10.066;2022-07-03T07:02:30;0.95;;;0.70;;
31368;SDS011;18004;48.416;10.066;2022-07-03T07:04:56;1.90;;;0.65;;
31368;SDS011;18004;48.416;10.066;2022-07-03T07:07:22;1.52;;;0.75;;
31368;SDS011;18004;48.416;10.066;2022-07-03T07:09:48;1.27;;;0.63;;
31368;SDS011;18004;48.416;10.066;2022-07-03T07:12:14;0.63;;;0.63;;
31368;SDS011;18004;48.416;10.066;2022-07-03T07:14:40;0.75;;;0.70;;
31368;SDS011;18004;48.416;10.066;2022-07-03T07:17:06;1.67;;;0.80;;
31368;SDS011;18004;48.416;10.066;2022-07-03T07:19:31;0.50;;;0.50;;
31368;SDS011;18004;48.416;10.066;2022-07-03T07:21:57;0.80;;;0.80;;
31368;SDS011;18004;48.416;10.066;2022-07-03T07:24:23;0.95;;;0.77;;
31368;SDS011;18004;48.416;10.066;2022-07-03T07:26:49;0.63;;;0.63;;
31368;SDS011;18004;48.416;10.066;2022-07-03T07:29:14;0.50;;;0.50;;
31368;SDS011;18004;48.416;10.066;2022-07-03T07:31:40;1.25;;;0.70;;
31368;SDS011;18004;48.416;10.066;2022-07-03T07:34:06;0.65;;;0.63;;
31368;SDS011;18004;48.416;10.066;2022-07-03T07:36:32;0.85;;;0.63;;
31368;SDS011;18004;48.416;10.066;2022-07-03T07:38:58;0.90;;;0.40;;
31368;SDS011;18004;48.416;10.066;2022-07-03T07:41:24;0.93;;;0.50;;
31368;SDS011;18004;48.416;10.066;2022-07-03T07:43:50;1.92;;;0.60;;
31368;SDS011;18004;48.416;10.066;2022-07-03T07:46:16;1.02;;;0.60;;
31368;SDS011;18004;48.416;10.066;2022-07-03T07:48:41;1.30;;;0.50;;
31368;SDS011;18004;48.416;10.066;2022-07-03T07:51:07;1.40;;;0.60;;
31368;SDS011;18004;48.416;10.066;2022-07-03T07:53:33;1.13;;;0.55;;
31368;SDS011;18004;48.416;10.066;2022-07-03T07:55:59;0.50;;;0.50;;
31368;SDS011;18004;48.416;10.066;2022-07-03T07:58:25;0.70;;;0.70;;
31368;SDS011;18004;48.416;10.066;2022-07-03T08:00:58;0.63;;;0.60;;
31368;SDS011;18004;48.416;10.066;2022-07-03T08:03:46;0.38;;;0.38;;
31368;SDS011;18004;48.416;10.066;2022-07-03T08:06:33;1.65;;;0.50;;
31368;SDS011;18004;48.416;10.066;2022-07-03T08:08:58;0.50;;;0.50;;
31368;SDS011;18004;48.416;10.066;2022-07-03T08:11:43;0.95;;;0.60;;
31368;SDS011;18004;48.416;10.066;2022-07-03T08:15:19;0.60;;;0.60;;
31368;SDS011;18004;48.416;10.066;2022-07-03T08:18:19;0.60;;;0.50;;
31368;SDS011;18004;48.416;10.066;2022-07-03T08:21:02;0.40;;;0.40;;
31368;SDS011;18004;48.416;10.066;2022-07-03T08:24:38;0.73;;;0.50;;
31368;SDS011;18004;48.416;10.066;2022-07-03T08:28:03;0.40;;;0.40;;
31368;SDS011;18004;48.416;10.066;2022-07-03T08:30:38;0.55;;;0.40;;
31368;SDS011;18004;48.416;10.066;2022-07-03T08:36:59;0.40;;;0.40;;
31368;SDS011;18004;48.416;10.066;2022-07-03T08:48:15;0.40;;;0.40;;
31368;SDS011;18004;48.416;10.066;2022-07-03T08:54:48;1.48;;;0.40;;
31368;SDS011;18004;48.416;10.066;2022-07-03T09:27:29;0.45;;;0.28;;
31368;SDS011;18004;48.416;10.066;2022-07-03T11:04:11;0.28;;;0.28;;
31368;SDS011;18004;48.416;10.066;2022-07-03T13:42:30;0.10;;;0.10;;
31368;SDS011;18004;48.416;10.066;2022-07-03T14:39:51;0.52;;;0.30;;
31368;SDS011;18004;48.416;10.066;2022-07-03T16:26:14;0.28;;;0.20;;
31368;SDS011;18004;48.416;10.066;2022-07-03T18:26:44;0.45;;;0.45;;
31368;SDS011;18004;48.416;10.066;2022-07-03T19:09:08;0.45;;;0.22;;
31368;SDS011;18004;48.416;10.066;2022-07-03T19:42:57;0.40;;;0.40;;
31368;SDS011;18004;48.416;10.066;2022-07-03T19:48:30;0.38;;;0.35;;
31368;SDS011;18004;48.416;10.066;2022-07-03T19:51:07;0.75;;;0.30;;
31368;SDS011;18004;48.416;10.066;2022-07-03T19:53:39;0.95;;;0.40;;
31368;SDS011;18004;48.416;10.066;2022-07-03T19:56:16;0.50;;;0.50;;
31368;SDS011;18004;48.416;10.066;2022-07-03T19:58:45;2.50;;;0.43;;
31368;SDS011;18004;48.416;10.066;2022-07-03T20:01:20;1.65;;;0.30;;
31368;SDS011;18004;48.416;10.066;2022-07-03T20:03:46;0.50;;;0.50;;
31368;SDS011;18004;48.416;10.066;2022-07-03T20:06:12;0.60;;;0.40;;
31368;SDS011;18004;48.416;10.066;2022-07-03T20:08:38;0.40;;;0.40;;
31368;SDS011;18004;48.416;10.066;2022-07-03T20:11:22;0.75;;;0.32;;
31368;SDS011;18004;48.416;10.066;2022-07-03T20:13:48;0.50;;;0.50;;
31368;SDS011;18004;48.416;10.066;2022-07-03T20:16:14;0.55;;;0.50;;
31368;SDS011;18004;48.416;10.066;2022-07-03T20:18:47;0.55;;;0.40;;
31368;SDS011;18004;48.416;10.066;2022-07-03T20:21:13;0.63;;;0.50;;
31368;SDS011;18004;48.416;10.066;2022-07-03T20:23:48;0.30;;;0.30;;
31368;SDS011;18004;48.416;10.066;2022-07-03T20:26:32;0.73;;;0.40;;
31368;SDS011;18004;48.416;10.066;2022-07-03T20:28:58;0.30;;;0.30;;
31368;SDS011;18004;48.416;10.066;2022-07-03T20:31:35;1.40;;;0.52;;
31368;SDS011;18004;48.416;10.066;2022-07-03T20:34:08;0.50;;;0.50;;
31368;SDS011;18004;48.416;10.066;2022-07-03T20:36:37;0.77;;;0.60;;
31368;SDS011;18004;48.416;10.066;2022-07-03T20:39:27;0.45;;;0.40;;
31368;SDS011;18004;48.416;10.066;2022-07-03T20:42:16;0.70;;;0.40;;
31368;SDS011;18004;48.416;10.066;2022-07-03T20:47:23;0.30;;;0.30;;
31368;SDS011;18004;48.416;10.066;2022-07-03T20:50:12;1.42;;;0.52;;
31368;SDS011;18004;48.416;10.066;2022-07-03T20:52:38;2.17;;;0.43;;
31368;SDS011;18004;48.416;10.066;2022-07-03T20:55:12;4.45;;;0.50;;
31368;SDS011;18004;48.416;10.066;2022-07-03T20:58:01;1.38;;;0.40;;
31368;SDS011;18004;48.416;10.066;2022-07-03T21:00:38;2.33;;;0.30;;
31368;SDS011;18004;48.416;10.066;2022-07-03T21:03:13;0.57;;;0.45;;
31368;SDS011;18004;48.416;10.066;2022-07-03T21:05:39;0.80;;;0.40;;
31368;SDS011;18004;48.416;10.066;2022-07-03T21:08:10;0.68;;;0.47;;
31368;SDS011;18004;48.416;10.066;2022-07-03T21:10:36;0.30;;;0.30;;
31368;SDS011;18004;48.416;10.066;2022-07-03T21:18:48;0.80;;;0.50;;
31368;SDS011;18004;48.416;10.066;2022-07-03T21:21:16;0.30;;;0.30;;
31368;SDS011;18004;48.416;10.066;2022-07-03T21:23:42;0.55;;;0.40;;
31368;SDS011;18004;48.416;10.066;2022-07-03T21:26:26;0.75;;;0.40;;
31368;SDS011;18004;48.416;10.066;2022-07-03T21:28:58;0.30;;;0.30;;
31368;SDS011;18004;48.416;10.066;2022-07-03T21:31:25;0.38;;;0.30;;
31368;SDS011;18004;48.416;10.066;2022-07-03T21:37:51;0.68;;;0.47;;
31368;SDS011;18004;48.416;10.066;2022-07-03T21:40:49;1.60;;;0.40;;
31368;SDS011;18004;48.416;10.066;2022-07-03T21:43:18;0.77;;;0.40;;
31368;SDS011;18004;48.416;10.066;2022-07-03T21:46:02;0.70;;;0.50;;
31368;SDS011;18004;48.416;10.066;2022-07-03T21:48:28;0.50;;;0.50;;
31368;SDS011;18004;48.416;10.066;2022-07-03T21:50:54;0.68;;;0.30;;
31368;SDS011;18004;48.416;10.066;2022-07-03T21:53:41;0.85;;;0.55;;
31368;SDS011;18004;48.416;10.066;2022-07-03T21:56:29;1.25;;;0.40;;
31368;SDS011;18004;48.416;10.066;2022-07-03T21:58:55;0.30;;;0.30;;
31368;SDS011;18004;48.416;10.066;2022-07-03T22:01:21;1.15;;;0.50;;
31368;SDS011;18004;48.416;10.066;2022-07-03T22:03:54;0.30;;;0.30;;
31368;SDS011;18004;48.416;10.066;2022-07-03T22:06:30;5.50;;;0.45;;
31368;SDS011;18004;48.416;10.066;2022-07-03T22:08:56;0.32;;;0.32;;
31368;SDS011;18004;48.416;10.066;2022-07-03T22:11:22;0.50;;;0.30;;
31368;SDS011;18004;48.416;10.066;2022-07-03T22:13:50;0.70;;;0.40;;
31368;SDS011;18004;48.416;10.066;2022-07-03T22:16:17;0.50;;;0.40;;
31368;SDS011;18004;48.416;10.066;2022-07-03T22:18:49;0.50;;;0.38;;
31368;SDS011;18004;48.416;10.066;2022-07-03T22:21:15;0.30;;;0.30;;
31368;SDS011;18004;48.416;10.066;2022-07-03T22:23:44;0.30;;;0.20;;
31368;SDS011;18004;48.416;10.066;2022-07-03T22:26:15;0.40;;;0.35;;
31368;SDS011;18004;48.416;10.066;2022-07-03T22:28:41;0.30;;;0.30;;
31368;SDS011;18004;48.416;10.066;2022-07-03T22:31:13;0.57;;;0.30;;
31368;SDS011;18004;48.416;10.066;2022-07-03T22:34:17;0.63;;;0.40;;
31368;SDS011;18004;48.416;10.066;2022-07-03T22:36:56;0.77;;;0.50;;
31368;SDS011;18004;48.416;10.066;2022-07-03T22:39:22;0.85;;;0.50;;
31368;SDS011;18004;48.416;10.066;2022-07-03T22:41:54;0.70;;;0.55;;
31368;SDS011;18004;48.416;10.066;2022-07-03T22:44:21;4.47;;;0.50;;
31368;SDS011;18004;48.416;10.066;2022-07-03T22:46:48;2.10;;;0.50;;
31368;SDS011;18004;48.416;10.066;2022-07-03T22:49:14;1.63;;;0.40;;
31368;SDS011;18004;48.416;10.066;2022-07-03T22:51:40;0.88;;;0.52;;
31368;SDS011;18004;48.416;10.066;2022-07-03T22:54:09;2.05;;;0.45;;
31368;SDS011;18004;48.416;10.066;2022-07-03T22:56:36;0.85;;;0.52;;
31368;SDS011;18004;48.416;10.066;2022-07-03T22:59:02;1.55;;;0.32;;
31368;SDS011;18004;48.416;10.066;2022-07-03T23:01:29;0.50;;;0.25;;
31368;SDS011;18004;48.416;10.066;2022-07-03T23:03:56;0.60;;;0.60;;
31368;SDS011;18004;48.416;10.066;2022-07-03T23:06:22;0.63;;;0.50;;
31368;SDS011;18004;48.416;10.066;2022-07-03T23:08:48;0.98;;;0.50;;
31368;SDS011;18004;48.416;10.066;2022-07-03T23:11:14;0.77;;;0.50;;
31368;SDS011;18004;48.416;10.066;2022-07-03T23:13:40;1.42;;;0.50;;
31368;SDS011;18004;48.416;10.066;2022-07-03T23:16:06;1.38;;;0.57;;
31368;SDS011;18004;48.416;10.066;2022-07-03T23:18:32;1.02;;;0.60;;
31368;SDS011;18004;48.416;10.066;2022-07-03T23:20:57;0.80;;;0.60;;
31368;SDS011;18004;48.416;10.066;2022-07-03T23:23:25;0.77;;;0.63;;
31368;SDS011;18004;48.416;10.066;2022-07-03T23:25:50;0.85;;;0.60;;
31368;SDS011;18004;48.416;10.066;2022-07-03T23:28:16;2.95;;;0.57;;
31368;SDS011;18004;48.416;10.066;2022-07-03T23:30:42;0.50;;;0.50;;
31368;SDS011;18004;48.416;10.066;2022-07-03T23:33:08;0.93;;;0.50;;
31368;SDS011;18004;48.416;10.066;2022-07-03T23:35:34;1.00;;;0.50;;
31368;SDS011;18004;48.416;10.066;2022-07-03T23:38:00;3.33;;;0.50;;
31368;SDS011;18004;48.416;10.066;2022-07-03T23:40:25;0.60;;;0.60;;
31368;SDS011;18004;48.416;10.066;2022-07-03T23:42:51;0.98;;;0.57;;
31368;SDS011;18004;48.416;10.066;2022-07-03T23:45:17;0.82;;;0.60;;
31368;SDS011;18004;48.416;10.066;2022-07-03T23:47:43;2.95;;;0.45;;
31368;SDS011;18004;48.416;10.066;2022-07-03T23:50:09;0.50;;;0.43;;
31368;SDS011;18004;48.416;10.066;2022-07-03T23:53:08;1.85;;;0.60;;
31368;SDS011;18004;48.416;10.066;2022-07-03T23:55:34;0.40;;;0.40;;
31368;SDS011;18004;48.416;10.066;2022-07-03T23:58:04;0.80;;;0.70;;
